createdAt,value
2019-05-11T00:01:07.964Z,100791.94
2019-05-11T00:03:38.584Z,100802.83
2019-05-11T00:06:09.184Z,100803.83
2019-05-11T00:08:39.479Z,100803.83
2019-05-11T00:11:10.139Z,100808.33
2019-05-11T00:13:42.218Z,100795.75
2019-05-11T00:16:12.912Z,100792.03
2019-05-11T00:18:43.953Z,100788.12
2019-05-11T00:21:15.915Z,100787.76
2019-05-11T00:23:47.019Z,100783.89
2019-05-11T00:26:17.365Z,100771.63
2019-05-11T00:28:48.040Z,100763.20
2019-05-11T00:31:18.438Z,100771.81
2019-05-11T00:33:49.566Z,100776.92
2019-05-11T00:36:20.089Z,100770.06
2019-05-11T00:38:50.475Z,100773.49
2019-05-11T00:41:20.844Z,100776.92
2019-05-11T00:43:51.095Z,100777.36
2019-05-11T00:46:23.099Z,100774.45
2019-05-11T00:48:53.488Z,100778.39
2019-05-11T00:51:23.839Z,100767.84
2019-05-11T00:53:54.566Z,100768.24
2019-05-11T00:56:25.241Z,100767.84
2019-05-11T00:58:55.651Z,100762.66
2019-05-11T01:01:26.206Z,100767.77
2019-05-11T01:03:56.587Z,100761.38
2019-05-11T01:06:27.206Z,100758.38
2019-05-11T01:08:57.533Z,100761.38
2019-05-11T01:11:27.818Z,100749.48
2019-05-11T01:13:58.137Z,100749.00
2019-05-11T01:16:29.771Z,100746.00
2019-05-11T01:19:00.067Z,100744.77
2019-05-11T01:21:33.370Z,100740.42
2019-05-11T01:24:03.962Z,100740.42
2019-05-11T01:26:34.580Z,100741.45
2019-05-11T01:29:05.007Z,100738.45
2019-05-11T01:31:35.254Z,100735.93
2019-05-11T01:34:05.854Z,100731.33
2019-05-11T01:36:36.201Z,100727.16
2019-05-11T01:39:07.891Z,100734.40
2019-05-11T01:41:38.211Z,100735.67
2019-05-11T01:44:08.752Z,100732.28
2019-05-11T01:46:42.118Z,100734.83
2019-05-11T01:49:15.175Z,100721.07
2019-05-11T01:51:45.657Z,100720.77
2019-05-11T01:54:16.340Z,100715.19
2019-05-11T01:56:46.773Z,100714.38
2019-05-11T01:59:18.380Z,100715.19
2019-05-11T02:01:48.643Z,100714.72
2019-05-11T02:04:20.170Z,100713.41
2019-05-11T02:06:50.928Z,100715.55
2019-05-11T02:09:21.519Z,100722.75
2019-05-11T02:11:51.799Z,100725.78
2019-05-11T02:14:23.854Z,100717.67
2019-05-11T02:16:54.132Z,100723.66
2019-05-11T02:19:26.031Z,100726.22
2019-05-11T02:21:56.383Z,100728.44
2019-05-11T02:24:26.661Z,100727.61
2019-05-11T02:26:57.197Z,100725.41
2019-05-11T02:29:27.540Z,100726.29
2019-05-11T02:31:58.093Z,100728.88
2019-05-11T02:34:28.680Z,100732.20
2019-05-11T02:36:58.996Z,100738.19
2019-05-11T02:39:29.275Z,100731.80
2019-05-11T02:41:59.861Z,100736.44
2019-05-11T02:44:32.885Z,100734.72
2019-05-11T02:47:05.059Z,100736.00
2019-05-11T02:49:38.605Z,100738.08
2019-05-11T02:52:09.727Z,100726.98
2019-05-11T02:54:41.478Z,100732.50
2019-05-11T02:57:12.071Z,100730.41
2019-05-11T02:59:42.354Z,100733.78
2019-05-11T03:02:12.890Z,100735.05
2019-05-11T03:04:43.207Z,100727.75
2019-05-11T03:07:17.475Z,100729.50
2019-05-11T03:09:47.974Z,100731.58
2019-05-11T03:12:19.766Z,100731.11
2019-05-11T03:14:52.342Z,100734.95
2019-05-11T03:17:27.340Z,100728.99
2019-05-11T03:19:57.809Z,100726.73
2019-05-11T03:22:30.647Z,100734.75
2019-05-11T03:25:01.108Z,100733.92
2019-05-11T03:27:31.783Z,100736.88
2019-05-11T03:30:02.527Z,100736.88
2019-05-11T03:32:33.690Z,100739.95
2019-05-11T03:35:04.055Z,100740.42
2019-05-11T03:37:35.791Z,100743.78
2019-05-11T03:40:06.258Z,100746.34
2019-05-11T03:42:40.617Z,100743.73
2019-05-11T03:45:11.360Z,100741.59
2019-05-11T03:47:43.960Z,100749.73
2019-05-11T03:50:14.259Z,100751.88
2019-05-11T03:52:45.325Z,100740.49
2019-05-11T03:55:15.815Z,100739.29
2019-05-11T03:57:46.143Z,100738.19
2019-05-11T04:00:16.405Z,100741.66
2019-05-11T04:02:49.722Z,100741.77
2019-05-11T04:05:20.017Z,100747.47
2019-05-11T04:07:50.514Z,100745.24
2019-05-11T04:10:25.086Z,100742.69
2019-05-11T04:12:53.393Z,100740.60
2019-05-11T04:15:23.677Z,100740.09
2019-05-11T04:17:53.940Z,100738.52
2019-05-11T04:20:24.813Z,100730.84
2019-05-11T04:22:55.094Z,100729.97
2019-05-11T04:25:25.937Z,100722.23
2019-05-11T04:27:56.360Z,100722.23
2019-05-11T04:30:26.749Z,100730.89
2019-05-11T04:32:57.080Z,100735.13
2019-05-11T04:35:29.113Z,100742.75
2019-05-11T04:38:02.434Z,100739.80
2019-05-11T04:40:32.981Z,100743.67
2019-05-11T04:43:03.305Z,100742.46
2019-05-11T04:45:34.816Z,100741.19
2019-05-11T04:48:05.189Z,100742.02
2019-05-11T04:50:36.840Z,100744.17
2019-05-11T04:53:07.164Z,100743.38
2019-05-11T04:55:37.796Z,100754.52
2019-05-11T04:58:08.363Z,100751.26
2019-05-11T05:00:38.734Z,100750.42
2019-05-11T05:03:11.250Z,100749.61
2019-05-11T05:05:41.605Z,100747.53
2019-05-11T05:08:12.533Z,100742.09
2019-05-11T05:10:45.854Z,100743.44
2019-05-11T05:13:16.455Z,100746.20
2019-05-11T05:15:46.735Z,100749.30
2019-05-11T05:18:16.997Z,100748.97
2019-05-11T05:20:48.232Z,100749.08
2019-05-11T05:23:18.784Z,100757.77
2019-05-11T05:25:50.693Z,100757.91
2019-05-11T05:28:21.252Z,100756.80
2019-05-11T05:30:51.536Z,100760.77
2019-05-11T05:33:22.174Z,100758.25
2019-05-11T05:35:52.445Z,100761.28
2019-05-11T05:38:23.925Z,100761.75
2019-05-11T05:40:54.206Z,100756.73
2019-05-11T05:43:28.601Z,100763.67
2019-05-11T05:45:59.026Z,100758.72
2019-05-11T05:48:30.276Z,100766.91
2019-05-11T05:51:00.813Z,100755.89
2019-05-11T05:53:31.271Z,100768.82
2019-05-11T05:56:02.728Z,100765.86
2019-05-11T05:58:34.964Z,100766.42
2019-05-11T06:01:10.078Z,100766.42
2019-05-11T06:03:41.960Z,100776.63
2019-05-11T06:06:16.697Z,100776.02
2019-05-11T06:08:48.562Z,100770.50
2019-05-11T06:11:21.027Z,100774.78
2019-05-11T06:13:56.144Z,100777.17
2019-05-11T06:16:26.638Z,100771.02
2019-05-11T06:18:59.259Z,100774.42
2019-05-11T06:21:29.882Z,100782.12
2019-05-11T06:24:06.557Z,100793.92
2019-05-11T06:26:38.063Z,100793.92
2019-05-11T06:29:09.903Z,100791.38
2019-05-11T06:31:40.173Z,100795.20
2019-05-11T06:34:18.246Z,100795.97
2019-05-11T06:36:48.646Z,100797.79
2019-05-11T06:39:20.323Z,100801.84
2019-05-11T06:41:50.595Z,100805.16
2019-05-11T06:44:22.333Z,100809.27
2019-05-11T06:46:52.891Z,100810.34
2019-05-11T06:49:23.494Z,100811.49
2019-05-11T06:51:53.830Z,100800.48
2019-05-11T06:54:26.934Z,100800.81
2019-05-11T06:56:57.272Z,100800.20
2019-05-11T06:59:30.092Z,100804.78
2019-05-11T07:02:00.800Z,100799.67
2019-05-11T07:04:31.124Z,100805.11
2019-05-11T07:07:01.739Z,100808.09
2019-05-11T07:09:32.101Z,100807.52
2019-05-11T07:12:02.491Z,100807.52
2019-05-11T07:14:33.921Z,100808.42
2019-05-11T07:17:04.378Z,100810.51
2019-05-11T07:19:34.912Z,100817.96
2019-05-11T07:22:05.548Z,100821.99
2019-05-11T07:24:35.887Z,100824.63
2019-05-11T07:27:06.463Z,100829.59
2019-05-11T07:29:36.778Z,100832.28
2019-05-11T07:32:19.937Z,100841.73
2019-05-11T07:34:39.687Z,100841.59
2019-05-11T07:37:10.009Z,100833.19
2019-05-11T07:39:40.374Z,100831.38
2019-05-11T07:42:15.146Z,100838.40
2019-05-11T07:44:47.972Z,100832.09
2019-05-11T07:47:18.820Z,100826.98
2019-05-11T07:49:49.395Z,100829.56
2019-05-11T07:52:20.903Z,100834.13
2019-05-11T07:54:52.966Z,100820.27
2019-05-11T07:57:25.671Z,100829.96
2019-05-11T07:59:57.903Z,100824.92
2019-05-11T08:02:32.304Z,100835.92
2019-05-11T08:05:02.254Z,100835.82
2019-05-11T08:07:33.647Z,100835.82
2019-05-11T08:10:04.071Z,100845.86
2019-05-11T08:12:34.572Z,100849.69
2019-05-11T08:15:11.660Z,100848.89
2019-05-11T08:17:38.185Z,100852.14
2019-05-11T08:20:09.771Z,100851.56
2019-05-11T08:22:41.557Z,100857.56
2019-05-11T08:25:13.402Z,100865.69
2019-05-11T08:27:44.629Z,100868.63
2019-05-11T08:30:15.490Z,100869.67
2019-05-11T08:32:49.541Z,100869.54
2019-05-11T08:35:20.623Z,100870.00
2019-05-11T08:37:51.547Z,100869.81
2019-05-11T08:40:22.222Z,100864.26
2019-05-11T08:42:52.898Z,100863.73
2019-05-11T08:45:24.932Z,100860.01
2019-05-11T08:47:57.929Z,100858.77
2019-05-11T08:50:28.184Z,100862.42
2019-05-11T08:52:59.081Z,100861.00
2019-05-11T08:55:29.620Z,100870.74
2019-05-11T08:58:00.215Z,100871.34
2019-05-11T09:00:30.740Z,100876.86
2019-05-11T09:03:01.370Z,100877.00
2019-05-11T09:05:31.827Z,100877.89
2019-05-11T09:08:02.426Z,100884.14
2019-05-11T09:10:32.887Z,100872.93
2019-05-11T09:13:03.511Z,100867.95
2019-05-11T09:15:38.308Z,100880.53
2019-05-11T09:18:09.176Z,100894.63
2019-05-11T09:20:39.508Z,100892.92
2019-05-11T09:23:10.086Z,100899.77
2019-05-11T09:25:40.674Z,100897.56
2019-05-11T09:28:11.630Z,100900.43
2019-05-11T09:30:43.143Z,100901.70
2019-05-11T09:33:14.057Z,100916.62
2019-05-11T09:35:50.064Z,100919.58
2019-05-11T09:38:18.571Z,100922.30
2019-05-11T09:40:49.764Z,100920.53
2019-05-11T09:43:20.361Z,100922.31
2019-05-11T09:45:51.868Z,100932.08
2019-05-11T09:48:24.824Z,100925.30
2019-05-11T09:50:58.578Z,100923.59
2019-05-11T09:53:28.539Z,100925.78
2019-05-11T09:55:59.157Z,100928.63
2019-05-11T09:58:30.690Z,100931.91
2019-05-11T10:01:01.285Z,100935.44
2019-05-11T10:03:31.612Z,100936.62
2019-05-11T10:06:02.221Z,100947.55
2019-05-11T10:08:32.506Z,100951.06
2019-05-11T10:11:02.946Z,100948.84
2019-05-11T10:13:33.726Z,100930.84
2019-05-11T10:16:09.663Z,100929.86
2019-05-11T10:18:38.536Z,100942.61
2019-05-11T10:21:14.927Z,100948.38
2019-05-11T10:23:45.628Z,100950.29
2019-05-11T10:26:18.681Z,100964.20
2019-05-11T10:28:49.691Z,100968.31
2019-05-11T10:31:20.291Z,100964.70
2019-05-11T10:33:52.387Z,100964.27
2019-05-11T10:36:27.851Z,100971.83
2019-05-11T10:38:58.803Z,100980.85
2019-05-11T10:41:30.576Z,100984.07
2019-05-11T10:44:04.365Z,100968.81
2019-05-11T10:46:34.943Z,100980.86
2019-05-11T10:49:07.832Z,100980.86
2019-05-11T10:51:38.462Z,100993.44
2019-05-11T10:54:09.127Z,100979.13
2019-05-11T10:56:43.738Z,100986.73
2019-05-11T10:59:15.636Z,100988.11
2019-05-11T11:01:48.219Z,100991.13
2019-05-11T11:04:18.614Z,100990.03
2019-05-11T11:06:49.130Z,100994.94
2019-05-11T11:09:19.745Z,101005.80
2019-05-11T11:11:51.419Z,101009.98
2019-05-11T11:14:22.029Z,101016.80
2019-05-11T11:16:54.257Z,101024.91
2019-05-11T11:19:24.880Z,101016.47
2019-05-11T11:22:07.819Z,101027.25
2019-05-11T11:24:29.784Z,101035.09
2019-05-11T11:27:01.652Z,101021.05
2019-05-11T11:29:32.206Z,101025.28
2019-05-11T11:32:02.797Z,101035.92
2019-05-11T11:34:33.672Z,101043.73
2019-05-11T11:37:04.328Z,101039.10
2019-05-11T11:39:35.448Z,101040.18
2019-05-11T11:42:08.244Z,101040.95
2019-05-11T11:44:39.554Z,101053.09
2019-05-11T11:47:10.180Z,101053.55
2019-05-11T11:49:41.770Z,101045.31
2019-05-11T11:52:12.380Z,101048.20
2019-05-11T11:54:44.671Z,101049.59
2019-05-11T11:57:15.307Z,101060.42
2019-05-11T11:59:48.083Z,101058.38
2019-05-11T12:02:19.034Z,101066.70
2019-05-11T12:04:49.926Z,101083.42
2019-05-11T12:07:21.998Z,101092.94
2019-05-11T12:09:52.643Z,101102.41
2019-05-11T12:12:23.930Z,101104.40
2019-05-11T12:14:54.575Z,101118.51
2019-05-11T12:17:25.267Z,101121.28
2019-05-11T12:19:58.414Z,101113.84
2019-05-11T12:22:29.344Z,101107.56
2019-05-11T12:25:00.533Z,101107.56
2019-05-11T12:27:31.209Z,101106.58
2019-05-11T12:30:01.593Z,101102.42
2019-05-11T12:32:48.901Z,101107.80
2019-05-11T12:35:22.110Z,101134.80
2019-05-11T12:37:52.740Z,101137.52
2019-05-11T12:40:23.346Z,101128.67
2019-05-11T12:42:53.952Z,101132.58
2019-05-11T12:45:26.037Z,101151.73
2019-05-11T12:47:58.567Z,101150.13
2019-05-11T12:50:29.111Z,101156.91
2019-05-11T12:52:59.453Z,101167.28
2019-05-11T12:55:30.169Z,101177.06
2019-05-11T12:58:00.710Z,101184.95
2019-05-11T13:00:31.600Z,101178.98
2019-05-11T13:03:02.210Z,101183.41
2019-05-11T13:05:34.590Z,101186.20
2019-05-11T13:08:08.076Z,101188.53
2019-05-11T13:10:39.118Z,101202.44
2019-05-11T13:13:09.771Z,101190.44
2019-05-11T13:15:40.574Z,101190.94
2019-05-11T13:18:11.171Z,101196.13
2019-05-11T13:20:41.894Z,101195.54
2019-05-11T13:23:18.535Z,101197.45
2019-05-11T13:25:49.300Z,101205.52
2019-05-11T13:28:19.630Z,101206.41
2019-05-11T13:30:50.263Z,101218.76
2019-05-11T13:33:22.348Z,101212.46
2019-05-11T13:35:52.984Z,101223.59
2019-05-11T13:38:23.590Z,101221.33
2019-05-11T13:40:54.187Z,101244.26
2019-05-11T13:43:24.799Z,101253.41
2019-05-11T13:45:55.379Z,101246.97
2019-05-11T13:48:28.006Z,101255.06
2019-05-11T13:51:01.202Z,101257.94
2019-05-11T13:53:31.988Z,101256.31
2019-05-11T13:56:02.581Z,101265.00
2019-05-11T13:58:34.014Z,101268.68
2019-05-11T14:01:05.027Z,101268.45
2019-05-11T14:03:37.694Z,101271.31
2019-05-11T14:06:09.848Z,101267.50
2019-05-11T14:08:40.490Z,101274.61
2019-05-11T14:11:12.092Z,101274.10
2019-05-11T14:13:42.720Z,101281.67
2019-05-11T14:16:13.329Z,101282.44
2019-05-11T14:18:45.292Z,101290.34
2019-05-11T14:21:18.646Z,101293.75
2019-05-11T14:23:49.396Z,101295.58
2019-05-11T14:26:22.130Z,101288.33
2019-05-11T14:28:52.717Z,101285.95
2019-05-11T14:31:27.464Z,101291.08
2019-05-11T14:33:58.120Z,101300.91
2019-05-11T14:36:29.332Z,101315.84
2019-05-11T14:38:59.652Z,101340.42
2019-05-11T14:41:30.111Z,101344.92
2019-05-11T14:44:00.478Z,101351.95
2019-05-11T14:46:30.905Z,101354.85
2019-05-11T14:54:14.894Z,101342.51
2019-05-11T14:56:47.955Z,101362.38
2019-05-11T14:59:19.048Z,101355.13
2019-05-11T15:01:49.656Z,101361.34
2019-05-11T15:04:20.215Z,101355.19
2019-05-11T15:06:51.117Z,101354.99
2019-05-11T15:09:21.794Z,101371.06
2019-05-11T15:11:53.626Z,101386.04
2019-05-11T15:14:24.229Z,101375.14
2019-05-11T15:16:54.870Z,101385.39
2019-05-11T15:19:27.881Z,101399.75
2019-05-11T15:21:58.918Z,101398.92
2019-05-11T15:24:29.624Z,101401.94
2019-05-11T15:26:59.938Z,101409.71
2019-05-11T15:29:30.280Z,101409.16
2019-05-11T15:32:00.671Z,101409.56
2019-05-11T15:34:34.485Z,101416.47
2019-05-11T15:37:05.305Z,101406.13
2019-05-11T15:39:37.891Z,101415.05
2019-05-11T15:42:14.868Z,101420.43
2019-05-11T15:44:44.843Z,101429.89
2019-05-11T15:47:16.777Z,101437.16
2019-05-11T15:49:48.487Z,101445.00
2019-05-11T15:52:19.037Z,101448.26
2019-05-11T15:54:49.996Z,101454.05
2019-05-11T15:57:20.602Z,101467.75
2019-05-11T15:59:50.893Z,101462.86
2019-05-11T16:02:21.828Z,101476.27
2019-05-11T16:04:52.433Z,101476.52
2019-05-11T16:07:23.071Z,101475.81
2019-05-11T16:09:53.990Z,101473.66
2019-05-11T16:12:28.626Z,101478.39
2019-05-11T16:15:00.281Z,101478.39
2019-05-11T16:17:31.148Z,101486.72
2019-05-11T16:20:05.113Z,101486.41
2019-05-11T16:22:38.294Z,101491.33
2019-05-11T16:25:08.783Z,101496.45
2019-05-11T16:27:39.739Z,101499.33
2019-05-11T16:30:12.374Z,101507.68
2019-05-11T16:32:44.031Z,101513.47
2019-05-11T16:35:14.665Z,101520.33
2019-05-11T16:37:45.581Z,101531.06
2019-05-11T16:40:20.113Z,101530.41
2019-05-11T16:42:49.293Z,101541.80
2019-05-11T16:45:23.470Z,101544.19
2019-05-11T16:47:52.071Z,101552.36
2019-05-11T16:50:22.701Z,101543.88
2019-05-11T16:52:52.983Z,101551.17
2019-05-11T16:55:23.585Z,101554.39
2019-05-11T16:57:58.654Z,101562.03
2019-05-11T17:00:28.629Z,101554.63
2019-05-11T17:03:00.728Z,101561.03
2019-05-11T17:05:33.904Z,101560.61
2019-05-11T17:08:04.637Z,101567.92
2019-05-11T17:10:34.953Z,101567.92
2019-05-11T17:13:05.868Z,101580.86
2019-05-11T17:15:38.986Z,101587.77
2019-05-11T17:18:09.349Z,101603.23
2019-05-11T17:20:39.699Z,101599.22
2019-05-11T17:23:10.154Z,101607.63
2019-05-11T17:25:40.438Z,101607.73
2019-05-11T17:28:10.779Z,101615.66
2019-05-11T17:30:41.065Z,101616.78
2019-05-11T17:33:11.688Z,101619.61
2019-05-11T17:35:42.016Z,101628.11
2019-05-11T17:38:12.401Z,101638.36
2019-05-11T17:40:42.753Z,101655.47
2019-05-11T17:43:14.036Z,101649.16
2019-05-11T17:45:45.016Z,101652.39
2019-05-11T17:48:17.750Z,101656.51
2019-05-11T17:50:50.106Z,101652.95
2019-05-11T17:53:20.695Z,101670.93
2019-05-11T17:55:51.278Z,101677.11
2019-05-11T17:58:21.802Z,101677.11
2019-05-11T18:00:53.428Z,101689.87
2019-05-11T18:03:24.180Z,101693.12
2019-05-11T18:05:54.606Z,101692.39
2019-05-11T18:08:28.561Z,101704.67
2019-05-11T18:10:58.656Z,101703.64
2019-05-11T18:13:30.070Z,101709.35
2019-05-11T18:16:00.625Z,101718.95
2019-05-11T18:18:30.993Z,101718.58
2019-05-11T18:21:01.919Z,101727.72
2019-05-11T18:23:35.228Z,101732.14
2019-05-11T18:26:05.634Z,101737.88
2019-05-11T18:28:37.849Z,101753.52
2019-05-11T18:31:08.560Z,101760.02
2019-05-11T18:33:39.647Z,101764.86
2019-05-11T18:36:09.965Z,101774.14
2019-05-11T18:38:40.577Z,101771.36
2019-05-11T18:41:10.965Z,101772.63
2019-05-11T18:43:41.276Z,101785.91
2019-05-11T18:46:11.586Z,101790.17
2019-05-11T18:48:41.955Z,101793.07
2019-05-11T18:51:12.515Z,101806.84
2019-05-11T18:53:43.277Z,101806.49
2019-05-11T18:56:13.865Z,101816.75
2019-05-11T18:58:44.337Z,101818.77
2019-05-11T19:01:14.959Z,101835.36
2019-05-11T19:03:47.695Z,101845.08
2019-05-11T19:06:18.437Z,101841.45
2019-05-11T19:08:50.027Z,101851.94
2019-05-11T19:11:21.151Z,101860.59
2019-05-11T19:13:52.025Z,101868.72
2019-05-11T19:16:22.429Z,101876.76
2019-05-11T19:18:52.954Z,101883.11
2019-05-11T19:21:23.241Z,101888.52
2019-05-11T19:23:53.571Z,101892.72
2019-05-11T19:26:23.962Z,101893.16
2019-05-11T19:28:54.245Z,101900.91
2019-05-11T19:31:24.638Z,101911.73
2019-05-11T19:33:54.920Z,101912.27
2019-05-11T19:36:27.615Z,101918.67
2019-05-11T19:38:58.407Z,101926.78
2019-05-11T19:41:29.779Z,101937.42
2019-05-11T19:44:00.066Z,101939.91
2019-05-11T19:46:30.681Z,101949.03
2019-05-11T19:49:01.188Z,101959.69
2019-05-11T19:51:31.493Z,101972.85
2019-05-11T19:54:01.802Z,101974.00
2019-05-11T19:56:32.074Z,101985.00
2019-05-11T19:59:02.742Z,101994.35
2019-05-11T20:01:33.056Z,101997.98
2019-05-11T20:04:05.124Z,102005.08
2019-05-11T20:06:35.414Z,102004.95
2019-05-11T20:09:08.754Z,102009.13
2019-05-11T20:11:39.217Z,102010.22
2019-05-11T20:14:12.888Z,102017.29
2019-05-11T20:16:43.334Z,102018.97
2019-05-11T20:19:14.172Z,102028.25
2019-05-11T20:21:44.792Z,102034.36
2019-05-11T20:24:15.053Z,102037.94
2019-05-11T20:26:45.386Z,102042.28
2019-05-11T20:29:16.024Z,102055.17
2019-05-11T20:31:46.395Z,102065.35
2019-05-11T20:34:18.007Z,102071.72
2019-05-11T20:36:49.714Z,102073.61
2019-05-11T20:39:20.031Z,102084.33
2019-05-11T20:41:50.628Z,102090.02
2019-05-11T20:44:23.469Z,102098.63
2019-05-11T20:46:53.773Z,102100.61
2019-05-11T20:49:24.186Z,102107.30
2019-05-11T20:51:54.460Z,102104.89
2019-05-11T20:54:28.180Z,102108.73
2019-05-11T20:57:00.049Z,102110.16
2019-05-11T20:59:30.334Z,102115.66
2019-05-11T21:02:00.936Z,102118.52
2019-05-11T21:04:31.314Z,102124.38
2019-05-11T21:07:01.696Z,102128.72
2019-05-11T21:09:31.979Z,102138.66
2019-05-11T21:12:03.233Z,102136.56
2019-05-11T21:14:33.725Z,102144.38
2019-05-11T21:17:05.037Z,102150.58
2019-05-11T21:19:35.336Z,102150.58
2019-05-11T21:22:05.643Z,102157.74
2019-05-11T21:24:35.907Z,102162.78
2019-05-11T21:27:06.180Z,102156.34
2019-05-11T21:29:38.683Z,102161.21
2019-05-11T21:32:08.834Z,102172.80
2019-05-11T21:34:39.813Z,102183.89
2019-05-11T21:37:10.096Z,102200.91
2019-05-11T21:39:41.527Z,102200.91
2019-05-11T21:42:11.952Z,102203.86
2019-05-11T21:44:42.322Z,102208.01
2019-05-11T21:47:12.799Z,102215.76
2019-05-11T21:49:43.074Z,102210.97
2019-05-11T21:52:13.411Z,102213.95
2019-05-11T21:54:44.008Z,102213.95
2019-05-11T21:57:14.283Z,102215.81
2019-05-11T21:59:45.044Z,102220.06
2019-05-11T22:02:15.497Z,102218.59
2019-05-11T22:04:47.997Z,102224.20
2019-05-11T22:07:18.592Z,102226.47
2019-05-11T22:09:50.264Z,102233.35
2019-05-11T22:12:20.692Z,102231.77
2019-05-11T22:14:50.961Z,102236.67
2019-05-11T22:17:21.388Z,102245.41
2019-05-11T22:19:52.653Z,102244.84
2019-05-11T22:22:25.401Z,102249.54
2019-05-11T22:24:55.224Z,102249.91
2019-05-11T22:27:27.801Z,102261.00
2019-05-11T22:29:58.950Z,102275.03
2019-05-11T22:32:29.357Z,102276.00
2019-05-11T22:35:00.031Z,102279.98
2019-05-11T22:37:31.536Z,102279.98
2019-05-11T22:40:02.097Z,102292.52
2019-05-11T22:42:32.640Z,102297.80
2019-05-11T22:45:04.037Z,102299.97
2019-05-11T22:47:34.306Z,102302.72
2019-05-11T22:50:07.735Z,102307.61
2019-05-11T22:52:40.404Z,102315.14
2019-05-11T22:55:12.024Z,102308.81
2019-05-11T22:57:42.919Z,102309.28
2019-05-11T23:00:13.564Z,102322.02
2019-05-11T23:02:44.006Z,102327.59
2019-05-11T23:05:14.287Z,102333.48
2019-05-11T23:07:44.623Z,102333.48
2019-05-11T23:10:14.907Z,102329.23
2019-05-11T23:12:48.365Z,102330.17
2019-05-11T23:15:19.174Z,102328.16
2019-05-11T23:17:49.523Z,102331.30
2019-05-11T23:20:20.070Z,102339.49
2019-05-11T23:22:57.887Z,102332.91
2019-05-11T23:25:22.479Z,102349.17
2019-05-11T23:27:53.047Z,102349.39
2019-05-11T23:30:23.643Z,102357.48
2019-05-11T23:32:54.279Z,102358.38
2019-05-11T23:35:24.737Z,102367.30
2019-05-11T23:37:58.099Z,102370.13
2019-05-11T23:40:31.419Z,102377.33
2019-05-11T23:43:01.697Z,102379.73
2019-05-11T23:45:32.021Z,102386.37
2019-05-11T23:48:02.332Z,102392.02
2019-05-11T23:50:32.872Z,102403.16
2019-05-11T23:53:06.847Z,102403.16
2019-05-11T23:55:38.006Z,102408.05
2019-05-11T23:58:08.703Z,102408.88
